createdAt,value
2017-08-09T00:00:32.373Z,0.00
2017-08-09T00:01:39.399Z,0.00
2017-08-09T00:02:45.442Z,0.00
2017-08-09T00:03:53.484Z,0.00
2017-08-09T00:04:59.526Z,0.00
2017-08-09T00:06:06.667Z,0.00
2017-08-09T00:07:14.663Z,0.00
2017-08-09T00:08:20.702Z,0.00
2017-08-09T00:09:27.739Z,0.00
2017-08-09T00:10:35.002Z,0.00
2017-08-09T00:11:41.579Z,0.00
2017-08-09T00:12:48.670Z,0.00
2017-08-09T00:13:55.710Z,0.00
2017-08-09T00:15:02.774Z,0.00
2017-08-09T00:16:10.571Z,0.00
2017-08-09T00:17:16.635Z,0.00
2017-08-09T00:18:23.839Z,0.00
2017-08-09T00:19:30.468Z,0.00
2017-08-09T00:20:37.539Z,0.00
2017-08-09T00:21:45.420Z,0.00
2017-08-09T00:22:52.407Z,0.00
2017-08-09T00:24:00.462Z,0.00
2017-08-09T00:25:06.318Z,0.00
2017-08-09T00:26:12.619Z,0.00
2017-08-09T00:27:19.223Z,0.00
2017-08-09T00:28:27.278Z,0.00
2017-08-09T00:29:33.343Z,0.00
2017-08-09T00:30:41.341Z,0.00
2017-08-09T00:31:47.391Z,0.00
2017-08-09T00:32:54.482Z,0.00
2017-08-09T00:34:01.642Z,0.00
2017-08-09T00:35:08.744Z,0.00
2017-08-09T00:36:15.785Z,0.00
2017-08-09T00:37:23.626Z,0.00
2017-08-09T00:38:29.702Z,0.00
2017-08-09T00:39:37.543Z,0.00
2017-08-09T00:40:43.579Z,0.00
2017-08-09T00:41:50.662Z,0.00
2017-08-09T00:42:57.747Z,0.00
2017-08-09T00:44:04.773Z,0.00
2017-08-09T00:45:13.814Z,0.00
2017-08-09T00:46:18.923Z,0.00
2017-08-09T00:47:26.755Z,0.00
2017-08-09T00:48:32.815Z,0.00
2017-08-09T00:49:41.811Z,0.00
2017-08-09T00:50:47.715Z,0.00
2017-08-09T00:51:53.754Z,0.00
2017-08-09T00:53:00.823Z,0.00
2017-08-09T00:54:09.835Z,0.00
2017-08-09T00:55:14.883Z,0.00
2017-08-09T00:56:21.935Z,0.00
2017-08-09T00:57:29.771Z,0.00
2017-08-09T00:58:35.822Z,0.00
2017-08-09T00:59:43.808Z,0.00
2017-08-09T01:00:49.830Z,0.00
2017-08-09T01:01:56.863Z,0.00
2017-08-09T01:03:05.914Z,0.00
2017-08-09T01:04:11.910Z,0.00
2017-08-09T01:05:18.859Z,0.00
2017-08-09T01:06:24.919Z,0.00
2017-08-09T01:07:31.975Z,0.00
2017-08-09T01:08:39.283Z,0.00
2017-08-09T01:09:45.838Z,0.00
2017-08-09T01:10:52.872Z,0.00
2017-08-09T01:11:59.899Z,0.00
2017-08-09T01:13:06.931Z,0.00
2017-08-09T01:14:13.998Z,0.00
2017-08-09T01:15:21.034Z,0.00
2017-08-09T01:16:28.903Z,0.00
2017-08-09T01:17:34.930Z,0.00
2017-08-09T01:18:42.315Z,0.00
2017-08-09T01:19:49.858Z,0.00
2017-08-09T01:20:57.866Z,0.00
2017-08-09T01:22:02.902Z,0.00
2017-08-09T01:23:11.936Z,0.00
2017-08-09T01:24:17.196Z,0.00
2017-08-09T01:25:23.808Z,0.00
2017-08-09T01:26:30.850Z,0.00
2017-08-09T01:27:38.107Z,0.00
2017-08-09T01:28:46.651Z,0.00
2017-08-09T01:29:51.694Z,0.00
2017-08-09T01:30:58.722Z,0.00
2017-08-09T01:32:06.756Z,0.00
2017-08-09T01:33:14.600Z,0.00
2017-08-09T01:34:19.647Z,0.00
2017-08-09T01:35:26.698Z,0.00
2017-08-09T01:36:33.742Z,0.00
2017-08-09T01:37:40.778Z,0.00
2017-08-09T01:38:48.630Z,0.00
2017-08-09T01:39:54.679Z,0.00
2017-08-09T01:41:03.819Z,0.00
2017-08-09T01:42:08.871Z,0.00
2017-08-09T01:43:15.906Z,0.00
2017-08-09T01:44:22.990Z,0.00
2017-08-09T01:45:30.992Z,0.00
2017-08-09T01:46:37.107Z,0.00
2017-08-09T01:47:44.159Z,0.00
2017-08-09T01:48:52.107Z,0.00
2017-08-09T01:49:59.094Z,0.00
2017-08-09T01:51:05.179Z,0.00
2017-08-09T01:52:12.199Z,0.00
2017-08-09T01:53:20.207Z,0.00
2017-08-09T01:54:26.242Z,0.00
2017-08-09T01:55:33.320Z,0.00
2017-08-09T01:56:40.416Z,0.00
2017-08-09T01:57:48.405Z,0.00
2017-08-09T01:58:54.469Z,0.00
2017-08-09T02:00:01.771Z,0.00
2017-08-09T02:01:09.294Z,0.00
2017-08-09T02:02:15.342Z,0.00
2017-08-09T02:03:24.407Z,0.00
2017-08-09T02:04:30.379Z,0.00
2017-08-09T02:05:36.430Z,0.00
2017-08-09T02:06:44.402Z,0.00
2017-08-09T02:07:50.507Z,0.00
2017-08-09T02:08:58.518Z,0.00
2017-08-09T02:10:04.582Z,0.00
2017-08-09T02:11:11.612Z,0.00
2017-08-09T02:12:18.655Z,0.00
2017-08-09T02:13:26.587Z,0.00
2017-08-09T02:14:32.629Z,0.00
2017-08-09T02:15:40.677Z,0.00
2017-08-09T02:16:47.583Z,0.00
2017-08-09T02:17:53.638Z,0.00
2017-08-09T02:19:00.682Z,0.00
2017-08-09T02:20:07.794Z,0.00
2017-08-09T02:21:14.843Z,0.00
2017-08-09T02:22:21.882Z,0.00
2017-08-09T02:23:28.945Z,0.00
2017-08-09T02:24:35.994Z,0.00
2017-08-09T02:25:43.031Z,0.00
2017-08-09T02:26:50.474Z,0.00
2017-08-09T02:27:57.025Z,0.00
2017-08-09T02:29:04.082Z,0.00
2017-08-09T02:30:11.124Z,0.00
2017-08-09T02:31:18.412Z,0.00
2017-08-09T02:32:24.974Z,0.00
2017-08-09T02:33:32.003Z,0.00
2017-08-09T02:34:39.060Z,0.00
2017-08-09T02:35:46.106Z,0.00
2017-08-09T02:36:53.155Z,0.00
2017-08-09T02:38:02.178Z,0.00
2017-08-09T02:39:07.245Z,0.00
2017-08-09T02:40:15.160Z,0.00
2017-08-09T02:41:22.010Z,0.00
2017-08-09T02:42:28.079Z,0.00
2017-08-09T02:43:36.255Z,0.00
2017-08-09T02:44:42.658Z,0.00
2017-08-09T02:45:51.736Z,0.00
2017-08-09T02:46:58.859Z,0.00
2017-08-09T02:48:02.919Z,0.00
2017-08-09T02:49:09.962Z,0.00
2017-08-09T02:50:17.030Z,0.00
2017-08-09T02:51:24.134Z,0.00
2017-08-09T02:52:31.304Z,0.00
2017-08-09T02:53:38.809Z,0.00
2017-08-09T02:54:44.874Z,0.00
2017-08-09T02:55:52.007Z,0.00
2017-08-09T02:56:59.064Z,0.00
2017-08-09T02:58:06.277Z,0.00
2017-08-09T02:59:13.799Z,0.00
2017-08-09T03:00:21.806Z,0.00
2017-08-09T03:01:27.698Z,0.00
2017-08-09T03:02:38.619Z,0.00
2017-08-09T03:03:41.623Z,0.00
2017-08-09T03:04:47.671Z,0.00
2017-08-09T03:05:54.713Z,0.00
2017-08-09T03:07:01.851Z,0.00
2017-08-09T03:08:08.907Z,0.00
2017-08-09T03:09:15.976Z,0.00
2017-08-09T03:10:23.006Z,0.00
2017-08-09T03:11:30.075Z,0.00
2017-08-09T03:12:37.115Z,0.00
2017-08-09T03:13:44.148Z,0.00
2017-08-09T03:14:51.182Z,0.00
2017-08-09T03:15:58.218Z,0.00
2017-08-09T03:17:05.275Z,0.00
2017-08-09T03:18:12.329Z,0.00
2017-08-09T03:19:19.363Z,0.00
2017-08-09T03:20:26.395Z,0.00
2017-08-09T03:21:37.436Z,0.00
2017-08-09T03:22:40.468Z,0.00
2017-08-09T03:23:47.503Z,0.00
2017-08-09T03:24:54.539Z,0.00
2017-08-09T03:26:01.579Z,0.00
2017-08-09T03:27:08.639Z,0.00
2017-08-09T03:28:15.666Z,0.00
2017-08-09T03:29:22.694Z,0.00
2017-08-09T03:30:29.735Z,0.00
2017-08-09T03:31:36.775Z,0.00
2017-08-09T03:32:44.082Z,0.00
2017-08-09T03:33:50.707Z,0.00
2017-08-09T03:34:57.764Z,0.00
2017-08-09T03:36:04.804Z,0.00
2017-08-09T03:37:11.842Z,0.00
2017-08-09T03:38:18.889Z,0.00
2017-08-09T03:39:25.935Z,0.00
2017-08-09T03:40:33.004Z,0.00
2017-08-09T03:41:40.045Z,1.00
2017-08-09T03:42:47.097Z,1.00
2017-08-09T03:43:54.151Z,1.00
2017-08-09T03:45:01.191Z,1.00
2017-08-09T03:46:08.230Z,1.00
2017-08-09T03:47:15.283Z,1.00
2017-08-09T03:48:22.338Z,1.00
2017-08-09T03:49:29.383Z,2.00
2017-08-09T03:50:36.419Z,2.00
2017-08-09T03:51:43.471Z,2.00
2017-08-09T03:52:50.503Z,2.00
2017-08-09T03:53:57.554Z,3.00
2017-08-09T03:55:04.582Z,3.00
2017-08-09T03:56:11.615Z,4.00
2017-08-09T03:57:18.687Z,4.00
2017-08-09T03:58:25.756Z,5.00
2017-08-09T03:59:32.791Z,5.00
2017-08-09T04:00:39.864Z,6.00
2017-08-09T04:01:46.914Z,6.00
2017-08-09T04:02:53.960Z,7.00
2017-08-09T04:04:01.010Z,8.00
2017-08-09T04:05:08.053Z,8.00
2017-08-09T04:06:15.098Z,9.00
2017-08-09T04:07:22.163Z,10.00
2017-08-09T04:08:29.220Z,11.00
2017-08-09T04:09:39.323Z,12.00
2017-08-09T04:10:43.358Z,13.00
2017-08-09T04:11:50.417Z,14.00
2017-08-09T04:12:57.459Z,15.00
2017-08-09T04:14:04.503Z,16.00
2017-08-09T04:15:11.570Z,17.00
2017-08-09T04:16:18.662Z,19.00
2017-08-09T04:17:25.702Z,20.00
2017-08-09T04:18:32.750Z,21.00
2017-08-09T04:19:39.779Z,23.00
2017-08-09T04:20:46.850Z,24.00
2017-08-09T04:21:53.928Z,26.00
2017-08-09T04:23:00.974Z,28.00
2017-08-09T04:24:08.022Z,29.00
2017-08-09T04:25:15.091Z,31.00
2017-08-09T04:26:22.169Z,33.00
2017-08-09T04:27:29.243Z,35.00
2017-08-09T04:28:36.335Z,37.00
2017-08-09T04:29:43.379Z,38.00
2017-08-09T04:30:50.450Z,40.00
2017-08-09T04:31:57.482Z,42.00
2017-08-09T04:33:04.504Z,44.00
2017-08-09T04:34:11.523Z,46.00
2017-08-09T04:35:18.568Z,48.00
2017-08-09T04:36:25.615Z,49.00
2017-08-09T04:37:32.684Z,48.00
2017-08-09T04:38:39.723Z,48.00
2017-08-09T04:39:46.768Z,49.00
2017-08-09T04:40:53.806Z,51.00
2017-08-09T04:42:00.872Z,53.00
2017-08-09T04:43:07.915Z,52.00
2017-08-09T04:44:14.962Z,52.00
2017-08-09T04:45:21.991Z,54.00
2017-08-09T04:46:29.055Z,55.00
2017-08-09T04:47:36.086Z,58.00
2017-08-09T04:48:43.110Z,59.00
2017-08-09T04:49:50.146Z,61.00
2017-08-09T04:50:57.184Z,64.00
2017-08-09T04:52:04.254Z,66.00
2017-08-09T04:53:11.288Z,64.00
2017-08-09T04:54:18.331Z,65.00
2017-08-09T04:55:25.380Z,70.00
2017-08-09T04:56:32.455Z,67.00
2017-08-09T04:57:39.494Z,67.00
2017-08-09T04:58:46.534Z,73.00
2017-08-09T04:59:53.560Z,77.00
2017-08-09T05:01:00.591Z,79.00
2017-08-09T05:02:07.650Z,67.00
2017-08-09T05:03:14.678Z,74.00
2017-08-09T05:04:21.706Z,77.00
2017-08-09T05:05:28.735Z,87.00
2017-08-09T05:06:35.802Z,87.00
2017-08-09T05:07:42.834Z,86.00
2017-08-09T05:08:49.879Z,101.00
2017-08-09T05:09:56.902Z,102.00
2017-08-09T05:11:03.934Z,116.00
2017-08-09T05:12:10.975Z,110.00
2017-08-09T05:13:18.016Z,114.00
2017-08-09T05:14:25.055Z,119.00
2017-08-09T05:15:32.070Z,109.00
2017-08-09T05:16:39.102Z,120.00
2017-08-09T05:17:46.147Z,123.00
2017-08-09T05:18:53.178Z,124.00
2017-08-09T05:20:00.202Z,117.00
2017-08-09T05:21:07.234Z,124.00
2017-08-09T05:22:14.279Z,128.00
2017-08-09T05:23:21.331Z,132.00
2017-08-09T05:24:28.366Z,135.00
2017-08-09T05:25:35.417Z,147.00
2017-08-09T05:26:42.449Z,145.00
2017-08-09T05:27:49.518Z,132.00
2017-08-09T05:28:56.567Z,127.00
2017-08-09T05:30:03.598Z,126.00
2017-08-09T05:31:10.636Z,130.00
2017-08-09T05:32:17.667Z,134.00
2017-08-09T05:33:24.738Z,137.00
2017-08-09T05:34:31.770Z,111.00
2017-08-09T05:35:38.810Z,111.00
2017-08-09T05:36:45.834Z,113.00
2017-08-09T05:37:52.927Z,116.00
2017-08-09T05:38:59.995Z,121.00
2017-08-09T05:40:07.027Z,125.00
2017-08-09T05:41:14.096Z,131.00
2017-08-09T05:42:21.149Z,133.00
2017-08-09T05:43:28.200Z,134.00
2017-08-09T05:44:35.240Z,138.00
2017-08-09T05:45:42.287Z,139.00
2017-08-09T05:46:49.334Z,138.00
2017-08-09T05:47:56.366Z,141.00
2017-08-09T05:49:03.418Z,149.00
2017-08-09T05:50:10.467Z,159.00
2017-08-09T05:51:17.515Z,161.00
2017-08-09T05:52:24.554Z,155.00
2017-08-09T05:53:31.607Z,151.00
2017-08-09T05:54:38.645Z,148.00
2017-08-09T05:55:45.680Z,144.00
2017-08-09T05:56:52.703Z,145.00
2017-08-09T05:57:59.752Z,140.00
2017-08-09T05:59:06.808Z,135.00
2017-08-09T06:00:13.839Z,128.00
2017-08-09T06:01:20.887Z,135.00
2017-08-09T06:02:27.926Z,141.00
2017-08-09T06:03:34.959Z,172.00
2017-08-09T06:04:42.011Z,173.00
2017-08-09T06:05:49.051Z,195.00
2017-08-09T06:06:56.083Z,195.00
2017-08-09T06:08:03.135Z,222.00
2017-08-09T06:09:10.183Z,235.00
2017-08-09T06:10:17.234Z,185.00
2017-08-09T06:11:24.271Z,191.00
2017-08-09T06:12:31.303Z,205.00
2017-08-09T06:13:38.351Z,223.00
2017-08-09T06:14:45.402Z,235.00
2017-08-09T06:15:52.447Z,189.00
2017-08-09T06:16:59.484Z,198.00
2017-08-09T06:18:06.535Z,211.00
2017-08-09T06:19:13.583Z,170.00
2017-08-09T06:20:20.626Z,168.00
2017-08-09T06:21:27.654Z,177.00
2017-08-09T06:22:34.702Z,176.00
2017-08-09T06:23:41.736Z,169.00
2017-08-09T06:24:48.822Z,183.00
2017-08-09T06:25:55.859Z,203.00
2017-08-09T06:27:02.899Z,238.00
2017-08-09T06:28:09.922Z,286.00
2017-08-09T06:29:16.952Z,276.00
2017-08-09T06:30:23.990Z,243.00
2017-08-09T06:31:31.044Z,300.00
2017-08-09T06:32:38.071Z,261.00
2017-08-09T06:33:45.118Z,232.00
2017-08-09T06:34:52.151Z,267.00
2017-08-09T06:35:59.183Z,276.00
2017-08-09T06:37:06.240Z,246.00
2017-08-09T06:38:13.290Z,251.00
2017-08-09T06:39:20.315Z,249.00
2017-08-09T06:40:27.382Z,306.00
2017-08-09T06:41:34.426Z,280.00
2017-08-09T06:42:41.468Z,248.00
2017-08-09T06:43:48.502Z,229.00
2017-08-09T06:44:55.569Z,261.00
2017-08-09T06:46:02.622Z,276.00
2017-08-09T06:47:09.675Z,321.00
2017-08-09T06:48:16.721Z,308.00
2017-08-09T06:49:25.803Z,293.00
2017-08-09T06:50:30.867Z,292.00
2017-08-09T06:51:37.915Z,334.00
2017-08-09T06:52:46.224Z,363.00
2017-08-09T06:53:53.502Z,352.00
2017-08-09T06:54:58.915Z,340.00
2017-08-09T06:56:05.477Z,361.00
2017-08-09T06:57:12.543Z,353.00
2017-08-09T06:58:19.598Z,281.00
2017-08-09T06:59:26.646Z,252.00
2017-08-09T07:00:33.683Z,338.00
2017-08-09T07:01:40.730Z,387.00
2017-08-09T07:02:47.782Z,395.00
2017-08-09T07:03:54.817Z,286.00
2017-08-09T07:05:01.847Z,241.00
2017-08-09T07:06:08.882Z,323.00
2017-08-09T07:07:15.915Z,307.00
2017-08-09T07:08:22.983Z,264.00
2017-08-09T07:09:30.010Z,268.00
2017-08-09T07:10:37.055Z,284.00
2017-08-09T07:11:44.083Z,313.00
2017-08-09T07:12:51.148Z,360.00
2017-08-09T07:13:58.194Z,381.00
2017-08-09T07:15:05.242Z,434.00
2017-08-09T07:16:12.266Z,492.00
2017-08-09T07:17:19.314Z,413.00
2017-08-09T07:18:26.367Z,317.00
2017-08-09T07:19:33.411Z,317.00
2017-08-09T07:20:40.451Z,336.00
2017-08-09T07:21:47.492Z,402.00
2017-08-09T07:22:54.542Z,505.00
2017-08-09T07:24:01.600Z,520.00
2017-08-09T07:25:08.641Z,450.00
2017-08-09T07:26:15.698Z,403.00
2017-08-09T07:27:22.748Z,401.00
2017-08-09T07:28:29.795Z,404.00
2017-08-09T07:29:36.851Z,308.00
2017-08-09T07:30:43.898Z,382.00
2017-08-09T07:31:50.939Z,442.00
2017-08-09T07:32:57.970Z,472.00
2017-08-09T07:34:05.017Z,452.00
2017-08-09T07:35:12.058Z,447.00
2017-08-09T07:36:19.106Z,401.00
2017-08-09T07:37:26.139Z,376.00
2017-08-09T07:38:33.187Z,362.00
2017-08-09T07:39:40.239Z,414.00
2017-08-09T07:40:47.293Z,450.00
2017-08-09T07:41:54.339Z,455.00
2017-08-09T07:43:01.374Z,401.00
2017-08-09T07:44:08.430Z,481.00
2017-08-09T07:45:15.475Z,516.00
2017-08-09T07:46:22.509Z,544.00
2017-08-09T07:47:29.539Z,435.00
2017-08-09T07:48:36.586Z,406.00
2017-08-09T07:49:43.639Z,354.00
2017-08-09T07:50:50.679Z,345.00
2017-08-09T07:51:57.723Z,434.00
2017-08-09T07:53:04.782Z,435.00
2017-08-09T07:54:11.851Z,427.00
2017-08-09T07:55:18.892Z,544.00
2017-08-09T07:56:25.931Z,585.00
2017-08-09T07:57:32.963Z,571.00
2017-08-09T07:58:40.002Z,477.00
2017-08-09T07:59:47.051Z,566.00
2017-08-09T08:00:54.099Z,427.00
2017-08-09T08:02:01.131Z,416.00
2017-08-09T08:03:08.172Z,439.00
2017-08-09T08:04:15.210Z,459.00
2017-08-09T08:05:22.266Z,500.00
2017-08-09T08:06:29.306Z,463.00
2017-08-09T08:07:36.376Z,439.00
2017-08-09T08:08:43.423Z,431.00
2017-08-09T08:09:50.466Z,441.00
2017-08-09T08:10:57.530Z,536.00
2017-08-09T08:12:04.576Z,573.00
2017-08-09T08:13:11.610Z,559.00
2017-08-09T08:14:18.657Z,651.00
2017-08-09T08:15:25.694Z,504.00
2017-08-09T08:16:32.743Z,617.00
2017-08-09T08:17:39.771Z,784.00
2017-08-09T08:18:46.811Z,940.00
2017-08-09T08:19:53.843Z,817.00
2017-08-09T08:21:00.903Z,822.00
2017-08-09T08:22:07.939Z,1204.00
2017-08-09T08:23:14.999Z,687.00
2017-08-09T08:24:22.035Z,684.00
2017-08-09T08:25:29.071Z,2013.00
2017-08-09T08:26:36.138Z,669.00
2017-08-09T08:27:43.178Z,629.00
2017-08-09T08:28:50.211Z,873.00
2017-08-09T08:29:57.254Z,620.00
2017-08-09T08:31:04.300Z,519.00
2017-08-09T08:32:11.354Z,438.00
2017-08-09T08:33:18.396Z,499.00
2017-08-09T08:34:25.438Z,689.00
2017-08-09T08:35:32.466Z,899.00
2017-08-09T08:36:39.527Z,2988.00
2017-08-09T08:37:46.580Z,2708.00
2017-08-09T08:38:53.619Z,663.00
2017-08-09T08:40:00.661Z,516.00
2017-08-09T08:41:07.691Z,514.00
2017-08-09T08:42:14.738Z,512.00
2017-08-09T08:43:21.774Z,548.00
2017-08-09T08:44:28.803Z,537.00
2017-08-09T08:45:35.883Z,534.00
2017-08-09T08:46:42.920Z,461.00
2017-08-09T08:47:49.976Z,450.00
2017-08-09T08:48:57.358Z,426.00
2017-08-09T08:50:03.887Z,419.00
2017-08-09T08:51:10.907Z,457.00
2017-08-09T08:52:17.956Z,528.00
2017-08-09T08:53:25.006Z,589.00
2017-08-09T08:54:32.048Z,1193.00
2017-08-09T08:55:39.095Z,815.00
2017-08-09T08:56:46.151Z,2767.00
2017-08-09T08:57:53.243Z,1156.00
2017-08-09T08:59:00.270Z,963.00
2017-08-09T09:00:07.296Z,1930.00
2017-08-09T09:01:14.336Z,3547.00
2017-08-09T09:02:21.383Z,3765.00
2017-08-09T09:03:28.439Z,3413.00
2017-08-09T09:04:35.488Z,2951.00
2017-08-09T09:05:42.538Z,1722.00
2017-08-09T09:06:49.579Z,1097.00
2017-08-09T09:07:56.644Z,3783.00
2017-08-09T09:09:03.739Z,2586.00
2017-08-09T09:10:10.813Z,1488.00
2017-08-09T09:11:17.874Z,3536.00
2017-08-09T09:12:24.919Z,816.00
2017-08-09T09:13:31.969Z,1336.00
2017-08-09T09:14:39.015Z,1370.00
2017-08-09T09:15:46.059Z,2843.00
2017-08-09T09:16:53.103Z,996.00
2017-08-09T09:18:00.163Z,1322.00
2017-08-09T09:19:07.218Z,2720.00
2017-08-09T09:20:14.251Z,2022.00
2017-08-09T09:21:21.278Z,3980.00
2017-08-09T09:22:28.311Z,3839.00
2017-08-09T09:23:35.362Z,1874.00
2017-08-09T09:24:42.410Z,3581.00
2017-08-09T09:25:49.448Z,3798.00
2017-08-09T09:26:56.480Z,4417.00
2017-08-09T09:28:03.526Z,3924.00
2017-08-09T09:29:10.575Z,4127.00
2017-08-09T09:30:17.609Z,4383.00
2017-08-09T09:31:24.647Z,4440.00
2017-08-09T09:32:31.718Z,4406.00
2017-08-09T09:33:38.754Z,4368.00
2017-08-09T09:34:45.802Z,4308.00
2017-08-09T09:35:52.847Z,4255.00
2017-08-09T09:36:59.914Z,4295.00
2017-08-09T09:38:06.947Z,4544.00
2017-08-09T09:39:14.048Z,1122.00
2017-08-09T09:40:21.088Z,2113.00
2017-08-09T09:41:28.132Z,4604.00
2017-08-09T09:42:35.162Z,4127.00
2017-08-09T09:43:42.202Z,3977.00
2017-08-09T09:44:49.251Z,4141.00
2017-08-09T09:45:56.278Z,4618.00
2017-08-09T09:47:03.311Z,3893.00
2017-08-09T09:48:10.348Z,2547.00
2017-08-09T09:49:17.378Z,3507.00
2017-08-09T09:50:24.419Z,740.00
2017-08-09T09:51:31.450Z,1153.00
2017-08-09T09:52:38.494Z,3422.00
2017-08-09T09:53:45.595Z,4661.00
2017-08-09T09:54:52.677Z,4895.00
2017-08-09T09:55:59.706Z,4437.00
2017-08-09T09:57:06.726Z,4729.00
2017-08-09T09:58:13.758Z,5123.00
2017-08-09T09:59:20.791Z,1098.00
2017-08-09T10:00:27.842Z,1354.00
2017-08-09T10:01:34.863Z,4725.00
2017-08-09T10:02:41.927Z,1246.00
2017-08-09T10:03:48.960Z,901.00
2017-08-09T10:04:55.984Z,2785.00
2017-08-09T10:06:03.019Z,4683.00
2017-08-09T10:07:10.076Z,5568.00
2017-08-09T10:08:17.139Z,5035.00
2017-08-09T10:09:24.191Z,4282.00
2017-08-09T10:10:31.247Z,5209.00
2017-08-09T10:11:38.302Z,5470.00
2017-08-09T10:12:45.354Z,5402.00
2017-08-09T10:13:52.407Z,5501.00
2017-08-09T10:14:59.454Z,5558.00
2017-08-09T10:16:06.543Z,5602.00
2017-08-09T10:17:13.595Z,5654.00
2017-08-09T10:18:20.639Z,6004.00
2017-08-09T10:19:27.683Z,1093.00
2017-08-09T10:20:34.736Z,891.00
2017-08-09T10:21:41.791Z,807.00
2017-08-09T10:22:48.847Z,746.00
2017-08-09T10:23:55.890Z,692.00
2017-08-09T10:25:02.926Z,724.00
2017-08-09T10:26:09.963Z,796.00
2017-08-09T10:27:17.004Z,1267.00
2017-08-09T10:28:24.061Z,4886.00
2017-08-09T10:29:31.111Z,2675.00
2017-08-09T10:30:38.157Z,928.00
2017-08-09T10:31:45.255Z,1016.00
2017-08-09T10:32:52.298Z,3877.00
2017-08-09T10:33:59.322Z,2471.00
2017-08-09T10:35:06.367Z,1559.00
2017-08-09T10:36:13.395Z,719.00
2017-08-09T10:37:20.436Z,739.00
2017-08-09T10:38:27.493Z,2962.00
2017-08-09T10:39:34.548Z,1272.00
2017-08-09T10:40:41.599Z,3912.00
2017-08-09T10:41:48.639Z,4949.00
2017-08-09T10:42:55.700Z,837.00
2017-08-09T10:44:02.735Z,761.00
2017-08-09T10:45:09.766Z,778.00
2017-08-09T10:46:16.803Z,896.00
2017-08-09T10:47:23.858Z,4483.00
2017-08-09T10:48:30.891Z,2380.00
2017-08-09T10:49:37.934Z,2594.00
2017-08-09T10:50:44.970Z,4335.00
2017-08-09T10:51:52.008Z,1093.00
2017-08-09T10:52:59.062Z,1075.00
2017-08-09T10:54:06.096Z,5486.00
2017-08-09T10:55:13.143Z,5848.00
2017-08-09T10:56:20.195Z,1088.00
2017-08-09T10:57:27.244Z,5522.00
2017-08-09T10:58:34.305Z,5716.00
2017-08-09T10:59:41.333Z,5405.00
2017-08-09T11:00:48.379Z,5402.00
2017-08-09T11:01:55.428Z,5312.00
2017-08-09T11:03:02.470Z,5332.00
2017-08-09T11:04:09.508Z,4920.00
2017-08-09T11:05:16.546Z,5192.00
2017-08-09T11:06:23.596Z,5095.00
2017-08-09T11:07:30.622Z,4894.00
2017-08-09T11:08:37.688Z,5112.00
2017-08-09T11:09:44.714Z,3912.00
2017-08-09T11:10:51.743Z,701.00
2017-08-09T11:11:58.768Z,646.00
2017-08-09T11:13:05.810Z,627.00
2017-08-09T11:14:12.870Z,614.00
2017-08-09T11:15:19.906Z,766.00
2017-08-09T11:16:26.936Z,820.00
2017-08-09T11:17:33.963Z,695.00
2017-08-09T11:18:41.004Z,684.00
2017-08-09T11:19:48.058Z,631.00
2017-08-09T11:20:55.084Z,615.00
2017-08-09T11:22:02.115Z,659.00
2017-08-09T11:23:09.138Z,696.00
2017-08-09T11:24:16.203Z,818.00
2017-08-09T11:25:23.251Z,826.00
2017-08-09T11:26:30.291Z,732.00
2017-08-09T11:27:37.379Z,901.00
2017-08-09T11:28:44.418Z,798.00
2017-08-09T11:29:51.478Z,611.00
2017-08-09T11:30:58.515Z,625.00
2017-08-09T11:32:05.539Z,613.00
2017-08-09T11:33:12.563Z,663.00
2017-08-09T11:34:19.595Z,736.00
2017-08-09T11:35:26.670Z,2993.00
2017-08-09T11:36:33.712Z,3173.00
2017-08-09T11:37:40.762Z,3434.00
2017-08-09T11:38:47.801Z,3386.00
2017-08-09T11:39:54.832Z,3332.00
2017-08-09T11:41:01.888Z,3293.00
2017-08-09T11:42:08.911Z,3281.00
2017-08-09T11:43:15.943Z,3130.00
2017-08-09T11:44:22.983Z,3073.00
2017-08-09T11:45:30.038Z,3084.00
2017-08-09T11:46:37.064Z,3060.00
2017-08-09T11:47:44.104Z,3036.00
2017-08-09T11:48:51.126Z,817.00
2017-08-09T11:49:58.166Z,866.00
2017-08-09T11:51:05.198Z,731.00
2017-08-09T11:52:12.226Z,702.00
2017-08-09T11:53:19.259Z,707.00
2017-08-09T11:54:26.290Z,679.00
2017-08-09T11:55:33.378Z,610.00
2017-08-09T11:56:40.424Z,531.00
2017-08-09T11:57:47.454Z,534.00
2017-08-09T11:58:54.514Z,560.00
2017-08-09T12:00:01.571Z,593.00
2017-08-09T12:01:08.627Z,679.00
2017-08-09T12:02:15.665Z,2765.00
2017-08-09T12:03:22.702Z,2975.00
2017-08-09T12:04:29.736Z,2916.00
2017-08-09T12:05:36.765Z,2074.00
2017-08-09T12:06:43.823Z,2928.00
2017-08-09T12:07:50.883Z,3019.00
2017-08-09T12:08:57.918Z,3006.00
2017-08-09T12:10:04.975Z,881.00
2017-08-09T12:11:12.007Z,807.00
2017-08-09T12:12:19.059Z,872.00
2017-08-09T12:13:26.107Z,726.00
2017-08-09T12:14:33.139Z,777.00
2017-08-09T12:15:40.193Z,2986.00
2017-08-09T12:16:47.239Z,2562.00
2017-08-09T12:17:54.288Z,2899.00
2017-08-09T12:19:01.324Z,1053.00
2017-08-09T12:20:08.366Z,861.00
2017-08-09T12:21:15.424Z,1653.00
2017-08-09T12:22:22.479Z,2628.00
2017-08-09T12:23:29.519Z,1062.00
2017-08-09T12:24:36.563Z,2471.00
2017-08-09T12:25:43.616Z,3017.00
2017-08-09T12:26:50.698Z,2951.00
2017-08-09T12:27:57.779Z,2980.00
2017-08-09T12:29:04.823Z,3064.00
2017-08-09T12:30:11.858Z,3153.00
2017-08-09T12:31:18.896Z,3127.00
2017-08-09T12:32:25.942Z,3039.00
2017-08-09T12:33:32.991Z,3024.00
2017-08-09T12:34:40.036Z,2813.00
2017-08-09T12:35:47.096Z,2910.00
2017-08-09T12:36:54.150Z,2892.00
2017-08-09T12:38:01.242Z,2939.00
2017-08-09T12:39:08.278Z,2905.00
2017-08-09T12:40:15.342Z,2943.00
2017-08-09T12:41:22.383Z,2900.00
2017-08-09T12:42:29.443Z,2766.00
2017-08-09T12:43:36.486Z,2673.00
2017-08-09T12:44:43.539Z,2692.00
2017-08-09T12:45:50.583Z,2732.00
2017-08-09T12:46:57.626Z,2799.00
2017-08-09T12:48:04.667Z,2747.00
2017-08-09T12:49:11.719Z,2732.00
2017-08-09T12:50:18.759Z,2637.00
2017-08-09T12:51:25.783Z,2436.00
2017-08-09T12:52:32.818Z,2748.00
2017-08-09T12:53:39.872Z,2651.00
2017-08-09T12:54:46.843Z,2709.00
2017-08-09T12:55:53.890Z,2653.00
2017-08-09T12:57:00.940Z,2745.00
2017-08-09T12:58:07.994Z,2753.00
2017-08-09T12:59:15.052Z,2613.00
2017-08-09T13:00:22.092Z,2511.00
2017-08-09T13:01:29.128Z,2474.00
2017-08-09T13:02:36.160Z,2509.00
2017-08-09T13:03:43.198Z,2433.00
2017-08-09T13:04:50.247Z,2425.00
2017-08-09T13:05:57.287Z,2464.00
2017-08-09T13:07:04.651Z,2604.00
2017-08-09T13:08:11.166Z,2572.00
2017-08-09T13:09:18.255Z,2698.00
2017-08-09T13:10:25.304Z,2389.00
2017-08-09T13:11:32.562Z,2445.00
2017-08-09T13:12:39.892Z,2461.00
2017-08-09T13:13:46.311Z,2471.00
2017-08-09T13:14:53.394Z,2440.00
2017-08-09T13:16:00.465Z,2494.00
2017-08-09T13:17:07.514Z,2268.00
2017-08-09T13:18:14.571Z,2263.00
2017-08-09T13:19:21.674Z,2443.00
2017-08-09T13:20:28.743Z,734.00
2017-08-09T13:21:35.787Z,827.00
2017-08-09T13:22:42.835Z,2450.00
2017-08-09T13:23:49.894Z,2566.00
2017-08-09T13:24:56.953Z,2550.00
2017-08-09T13:26:04.019Z,2516.00
2017-08-09T13:27:11.088Z,2528.00
2017-08-09T13:28:18.139Z,2331.00
2017-08-09T13:29:25.198Z,2259.00
2017-08-09T13:30:32.268Z,2247.00
2017-08-09T13:31:39.336Z,2393.00
2017-08-09T13:32:46.411Z,2305.00
2017-08-09T13:33:53.471Z,2359.00
2017-08-09T13:35:00.525Z,2451.00
2017-08-09T13:36:07.598Z,2480.00
2017-08-09T13:37:15.163Z,2506.00
2017-08-09T13:38:21.709Z,2456.00
2017-08-09T13:39:28.775Z,2378.00
2017-08-09T13:40:35.890Z,2196.00
2017-08-09T13:41:42.959Z,2349.00
2017-08-09T13:42:50.003Z,2528.00
2017-08-09T13:43:57.064Z,2162.00
2017-08-09T13:45:04.127Z,1610.00
2017-08-09T13:46:11.226Z,2421.00
2017-08-09T13:47:18.283Z,1214.00
2017-08-09T13:48:25.335Z,2402.00
2017-08-09T13:49:32.386Z,2463.00
2017-08-09T13:50:39.421Z,2369.00
2017-08-09T13:51:46.467Z,2374.00
2017-08-09T13:52:53.563Z,2335.00
2017-08-09T13:54:00.645Z,2235.00
2017-08-09T13:55:07.682Z,2429.00
2017-08-09T13:56:14.740Z,2469.00
2017-08-09T13:57:21.790Z,2453.00
2017-08-09T13:58:28.843Z,2467.00
2017-08-09T13:59:35.890Z,1378.00
2017-08-09T14:00:42.942Z,1354.00
2017-08-09T14:01:49.991Z,839.00
2017-08-09T14:02:57.062Z,1848.00
2017-08-09T14:04:04.122Z,2247.00
2017-08-09T14:05:11.160Z,1839.00
2017-08-09T14:06:18.220Z,1290.00